Time;durP1;ratioP1;P1;durP2;ratioP2;P2;SDS_P1;SDS_P2;PMS_P1;PMS_P2;Temp;Humidity;BMP_temperature;BMP_pressure;BME280_temperature;BME280_humidity;BME280_pressure;Samples;Min_cycle;Max_cycle;Signal;HPM_P1;HPM_P2
2020/12/11 00:01:58;;;;;;;;;;;;;;;;;;4967428;28;20428;-66
2020/12/11 00:04:25;;;;;;;;;;;;;;;;;;4977801;28;19929;-66
2020/12/11 00:06:52;;;;;;;;;;;;;;;;;;4969562;28;19926;-66
2020/12/11 00:09:19;;;;;;;;;;;;;;;;;;4973372;28;20032;-66
2020/12/11 00:11:47;;;;;;;;;;;;;;;;;;4930922;28;1281754;-66
2020/12/11 00:14:14;;;;;;;;;;;;;;;;;;4977314;28;19926;-66
2020/12/11 00:16:41;;;;;;;;;;;;;;;;;;4985458;28;20629;-66
2020/12/11 00:19:09;;;;;;;;;;;;;;;;;;4973007;28;19974;-66
2020/12/11 00:21:36;;;;;;;;;;;;;;;;;;4970089;28;19932;-66
2020/12/11 00:24:03;;;;;;;;;;;;;;;;;;4972877;28;19942;-66
2020/12/11 00:26:30;;;;;;;;;;;;;;;;;;4968359;28;20297;-66
2020/12/11 00:28:57;;;;;;;;;;;;;;;;;;4969943;28;20008;-67
2020/12/11 00:31:24;;;;;;;;;;;;;;;;;;4968328;28;20464;-66
2020/12/11 00:33:51;;;;;;;;;;;;;;;;;;4965357;28;19933;-66
2020/12/11 00:36:19;;;;;;;;;;;;;;;;;;4968828;28;20440;-66
2020/12/11 00:38:46;;;;;;;;;;;;;;;;;;4969553;28;19930;-66
2020/12/11 00:41:13;;;;;;;;;;;;;;;;;;4970729;28;19934;-66
2020/12/11 00:43:40;;;;;;;;;;;;;;;;;;4973732;28;19942;-66
2020/12/11 00:46:07;;;;;;;;;;;;;;;;;;4973817;28;19932;-66
2020/12/11 00:48:34;;;;;;;;;;;;;;;;;;4972485;28;19930;-66
2020/12/11 00:51:01;;;;;;;;;;;;;;;;;;4974254;28;19926;-66
2020/12/11 00:53:28;;;;;;;;;;;;;;;;;;4972739;28;19926;-66
2020/12/11 00:55:57;;;;;;;;;;;;;;;;;;4973093;28;19937;-66
2020/12/11 00:58:24;;;;;;;;;;;;;;;;;;4972340;28;20033;-66
2020/12/11 01:00:51;;;;;;;;;;;;;;;;;;4971481;28;20261;-66
2020/12/11 01:03:18;;;;;;;;;;;;;;;;;;4972858;28;19932;-66
2020/12/11 01:05:45;;;;;;;;;;;;;;;;;;4978407;28;19926;-66
2020/12/11 01:08:12;;;;;;;;;;;;;;;;;;4976358;28;19926;-66
2020/12/11 01:10:39;;;;;;;;;;;;;;;;;;4968675;28;19926;-66
2020/12/11 01:13:06;;;;;;;;;;;;;;;;;;4970993;28;19926;-66
2020/12/11 01:15:33;;;;;;;;;;;;;;;;;;4972868;28;20441;-66
2020/12/11 01:18:00;;;;;;;;;;;;;;;;;;4971460;28;19932;-66
2020/12/11 01:20:27;;;;;;;;;;;;;;;;;;4972803;28;19926;-66
2020/12/11 01:22:54;;;;;;;;;;;;;;;;;;4970502;28;19926;-66
2020/12/11 01:25:22;;;;;;;;;;;;;;;;;;4974506;28;20020;-66
2020/12/11 01:27:49;;;;;;;;;;;;;;;;;;4977715;28;19936;-66
2020/12/11 01:30:16;;;;;;;;;;;;;;;;;;4972429;28;20385;-66
2020/12/11 01:32:43;;;;;;;;;;;;;;;;;;4964813;28;19965;-66
2020/12/11 01:35:10;;;;;;;;;;;;;;;;;;4971895;28;19932;-66
2020/12/11 01:37:37;;;;;;;;;;;;;;;;;;4972246;28;19933;-66
2020/12/11 01:40:04;;;;;;;;;;;;;;;;;;4971883;28;20025;-66
2020/12/11 01:42:32;;;;;;;;;;;;;;;;;;4972832;28;19933;-66
2020/12/11 01:44:59;;;;;;;;;;;;;;;;;;4972466;28;19930;-66
2020/12/11 01:47:26;;;;;;;;;;;;;;;;;;4973738;28;19932;-66
2020/12/11 01:49:53;;;;;;;;;;;;;;;;;;4972194;28;19926;-66
2020/12/11 01:52:21;;;;;;;;;;;;;;;;;;4970914;28;19965;-66
2020/12/11 01:54:48;;;;;;;;;;;;;;;;;;4971197;28;20013;-66
2020/12/11 01:57:15;;;;;;;;;;;;;;;;;;4968602;28;20396;-66
2020/12/11 01:59:42;;;;;;;;;;;;;;;;;;4968942;28;19930;-66
2020/12/11 02:02:09;;;;;;;;;;;;;;;;;;4968862;28;20021;-66
2020/12/11 02:04:36;;;;;;;;;;;;;;;;;;4973343;23;19939;-64
2020/12/11 02:07:03;;;;;;;;;;;;;;;;;;4956806;29;19932;-64
2020/12/11 02:09:30;;;;;;;;;;;;;;;;;;4956757;29;20286;-62
2020/12/11 02:11:57;;;;;;;;;;;;;;;;;;4951367;29;19927;-64
2020/12/11 02:14:24;;;;;;;;;;;;;;;;;;4941959;29;20026;-65
2020/12/11 02:16:51;;;;;;;;;;;;;;;;;;4948454;29;20336;-63
2020/12/11 02:19:19;;;;;;;;;;;;;;;;;;4951904;28;20017;-64
2020/12/11 02:21:46;;;;;;;;;;;;;;;;;;4947223;28;20005;-62
2020/12/11 02:24:13;;;;;;;;;;;;;;;;;;4945940;28;20159;-67
2020/12/11 02:26:40;;;;;;;;;;;;;;;;;;4946027;29;19933;-62
2020/12/11 02:29:07;;;;;;;;;;;;;;;;;;4952901;28;19927;-66
2020/12/11 02:31:35;;;;;;;;;;;;;;;;;;4951573;28;20249;-63
2020/12/11 02:34:02;;;;;;;;;;;;;;;;;;4944823;28;19926;-63
2020/12/11 02:36:29;;;;;;;;;;;;;;;;;;4952374;28;19933;-63
2020/12/11 02:38:56;;;;;;;;;;;;;;;;;;4952951;28;19949;-63
2020/12/11 02:41:23;;;;;;;;;;;;;;;;;;4952713;29;19964;-64
2020/12/11 02:43:50;;;;;;;;;;;;;;;;;;4953400;28;19933;-63
2020/12/11 02:46:17;;;;;;;;;;;;;;;;;;4953386;29;19934;-64
2020/12/11 02:48:45;;;;;;;;;;;;;;;;;;4951592;28;19938;-63
2020/12/11 02:51:12;;;;;;;;;;;;;;;;;;4951355;28;20390;-63
2020/12/11 02:53:39;;;;;;;;;;;;;;;;;;4951692;28;19926;-63
2020/12/11 02:56:06;;;;;;;;;;;;;;;;;;4950785;28;19936;-64
2020/12/11 02:58:33;;;;;;;;;;;;;;;;;;4953106;28;19937;-64
2020/12/11 03:01:01;;;;;;;;;;;;;;;;;;4951487;28;20402;-64
2020/12/11 03:03:28;;;;;;;;;;;;;;;;;;4951106;28;20384;-63
2020/12/11 03:05:55;;;;;;;;;;;;;;;;;;4953022;28;20029;-62
2020/12/11 03:08:22;;;;;;;;;;;;;;;;;;4953605;29;19927;-63
2020/12/11 03:10:49;;;;;;;;;;;;;;;;;;4952255;28;19933;-63
2020/12/11 03:13:16;;;;;;;;;;;;;;;;;;4953119;29;20021;-63
2020/12/11 03:15:43;;;;;;;;;;;;;;;;;;4950961;28;19949;-63
2020/12/11 03:18:10;;;;;;;;;;;;;;;;;;4952207;28;20057;-62
2020/12/11 03:20:37;;;;;;;;;;;;;;;;;;4950633;28;19933;-63
2020/12/11 03:23:04;;;;;;;;;;;;;;;;;;4951094;28;19937;-67
2020/12/11 03:25:31;;;;;;;;;;;;;;;;;;4951619;28;20424;-63
2020/12/11 03:27:59;;;;;;;;;;;;;;;;;;4953057;29;20024;-64
2020/12/11 03:30:26;;;;;;;;;;;;;;;;;;4952833;28;19933;-64
2020/12/11 03:32:53;;;;;;;;;;;;;;;;;;4944349;29;20007;-64
2020/12/11 03:35:20;;;;;;;;;;;;;;;;;;4948476;28;20313;-63
2020/12/11 03:37:47;;;;;;;;;;;;;;;;;;4953002;29;19936;-62
2020/12/11 03:40:14;;;;;;;;;;;;;;;;;;4950662;28;19992;-63
2020/12/11 03:42:41;;;;;;;;;;;;;;;;;;4951314;28;19969;-63
2020/12/11 03:45:08;;;;;;;;;;;;;;;;;;4952521;28;19937;-63
2020/12/11 03:47:36;;;;;;;;;;;;;;;;;;4942019;28;19931;-63
2020/12/11 03:50:03;;;;;;;;;;;;;;;;;;4951117;28;20014;-64
2020/12/11 03:52:31;;;;;;;;;;;;;;;;;;4951318;28;19930;-64
2020/12/11 03:54:58;;;;;;;;;;;;;;;;;;4951474;28;20365;-63
2020/12/11 03:57:25;;;;;;;;;;;;;;;;;;4951227;28;19933;-63
2020/12/11 03:59:52;;;;;;;;;;;;;;;;;;4952576;29;20012;-65
2020/12/11 04:02:19;;;;;;;;;;;;;;;;;;4950885;28;20382;-63
2020/12/11 04:04:46;;;;;;;;;;;;;;;;;;4951782;28;20010;-63
2020/12/11 04:07:13;;;;;;;;;;;;;;;;;;4951418;28;19930;-65
2020/12/11 04:09:41;;;;;;;;;;;;;;;;;;4950984;28;20394;-63
2020/12/11 04:12:08;;;;;;;;;;;;;;;;;;4950928;28;20305;-64
2020/12/11 04:14:35;;;;;;;;;;;;;;;;;;4951653;28;19935;-63
2020/12/11 04:17:02;;;;;;;;;;;;;;;;;;4956733;29;19926;-64
2020/12/11 04:19:29;;;;;;;;;;;;;;;;;;4953953;28;20404;-63
2020/12/11 04:21:56;;;;;;;;;;;;;;;;;;4954301;28;20003;-62
2020/12/11 04:24:23;;;;;;;;;;;;;;;;;;4955276;28;20325;-65
2020/12/11 04:26:51;;;;;;;;;;;;;;;;;;4956412;29;19930;-62
2020/12/11 04:29:18;;;;;;;;;;;;;;;;;;4954933;28;19968;-63
2020/12/11 04:31:48;;;;;;;;;;;;;;;;;;4953622;28;19977;-63
2020/12/11 04:34:16;;;;;;;;;;;;;;;;;;4938995;28;20377;-64
2020/12/11 04:36:43;;;;;;;;;;;;;;;;;;4954558;28;19933;-62
2020/12/11 04:39:10;;;;;;;;;;;;;;;;;;4954486;28;19927;-62
2020/12/11 04:41:37;;;;;;;;;;;;;;;;;;4953777;28;20444;-63
2020/12/11 04:44:04;;;;;;;;;;;;;;;;;;4954971;28;19934;-63
2020/12/11 04:46:31;;;;;;;;;;;;;;;;;;4954713;28;19927;-62
2020/12/11 04:48:58;;;;;;;;;;;;;;;;;;4953931;28;20016;-63
2020/12/11 04:51:41;;;;;;;;;;;;;;;;;;2503927;28;10002079;-62
2020/12/11 04:54:08;;;;;;;;;;;;;;;;;;3244371;28;10001332;-63
2020/12/11 04:56:35;;;;;;;;;;;;;;;;;;4954843;28;19930;-62
2020/12/11 04:59:02;;;;;;;;;;;;;;;;;;4953022;28;19926;-62
2020/12/11 05:01:29;;;;;;;;;;;;;;;;;;4953625;28;20011;-62
2020/12/11 05:03:57;;;;;;;;;;;;;;;;;;4953515;28;20281;-63
2020/12/11 05:06:24;;;;;;;;;;;;;;;;;;4954094;28;20390;-65
2020/12/11 05:08:51;;;;;;;;;;;;;;;;;;4953666;28;20317;-62
2020/12/11 05:11:18;;;;;;;;;;;;;;;;;;4953284;28;20033;-64
2020/12/11 05:13:45;;;;;;;;;;;;;;;;;;4953858;28;19926;-63
2020/12/11 05:16:13;;;;;;;;;;;;;;;;;;4954311;28;20356;-62
2020/12/11 05:18:40;;;;;;;;;;;;;;;;;;4953183;28;19927;-62
2020/12/11 05:21:07;;;;;;;;;;;;;;;;;;4952818;28;19931;-64
2020/12/11 05:23:35;;;;;;;;;;;;;;;;;;4951422;28;20415;-65
2020/12/11 05:26:02;;;;;;;;;;;;;;;;;;4954257;28;20013;-63
2020/12/11 05:28:29;;;;;;;;;;;;;;;;;;4953865;28;20024;-63
2020/12/11 05:30:56;;;;;;;;;;;;;;;;;;4947659;28;19927;-64
2020/12/11 05:33:23;;;;;;;;;;;;;;;;;;4943592;28;20297;-62
2020/12/11 05:35:50;;;;;;;;;;;;;;;;;;4944181;28;19926;-62
2020/12/11 05:38:18;;;;;;;;;;;;;;;;;;4936033;28;20393;-62
2020/12/11 05:40:45;;;;;;;;;;;;;;;;;;4946429;28;19931;-62
2020/12/11 05:43:12;;;;;;;;;;;;;;;;;;4934414;29;20025;-62
2020/12/11 05:45:39;;;;;;;;;;;;;;;;;;4938811;29;20374;-62
2020/12/11 05:48:07;;;;;;;;;;;;;;;;;;4940266;29;20029;-63
2020/12/11 05:50:34;;;;;;;;;;;;;;;;;;4941292;29;20386;-64
2020/12/11 05:53:01;;;;;;;;;;;;;;;;;;4942846;29;20019;-63
2020/12/11 05:55:28;;;;;;;;;;;;;;;;;;4949450;29;19930;-63
2020/12/11 05:57:55;;;;;;;;;;;;;;;;;;4942640;29;19927;-63
2020/12/11 06:00:22;;;;;;;;;;;;;;;;;;4935239;29;20010;-64
2020/12/11 06:02:49;;;;;;;;;;;;;;;;;;4941656;28;20020;-63
2020/12/11 06:05:17;;;;;;;;;;;;;;;;;;4948366;29;19938;-64
2020/12/11 06:07:44;;;;;;;;;;;;;;;;;;4942179;29;19961;-64
2020/12/11 06:10:11;;;;;;;;;;;;;;;;;;4950171;29;20013;-63
2020/12/11 06:12:38;;;;;;;;;;;;;;;;;;4950431;29;19930;-64
2020/12/11 06:15:05;;;;;;;;;;;;;;;;;;4949526;28;19930;-64
2020/12/11 06:17:32;;;;;;;;;;;;;;;;;;4957378;28;20361;-66
2020/12/11 06:20:00;;;;;;;;;;;;;;;;;;4949863;29;20381;-63
2020/12/11 06:22:27;;;;;;;;;;;;;;;;;;4950908;28;20025;-64
2020/12/11 06:24:54;;;;;;;;;;;;;;;;;;4953090;28;20464;-63
2020/12/11 06:27:21;;;;;;;;;;;;;;;;;;4938328;28;20038;-64
2020/12/11 06:29:48;;;;;;;;;;;;;;;;;;4944712;28;19980;-63
2020/12/11 06:32:16;;;;;;;;;;;;;;;;;;4947920;28;19987;-63
2020/12/11 06:34:43;;;;;;;;;;;;;;;;;;4968599;28;20012;-63
2020/12/11 06:37:10;;;;;;;;;;;;;;;;;;4947528;28;20392;-64
2020/12/11 06:39:37;;;;;;;;;;;;;;;;;;4953224;28;19930;-63
2020/12/11 06:42:06;;;;;;;;;;;;;;;;;;4950118;28;20029;-65
2020/12/11 06:44:33;;;;;;;;;;;;;;;;;;4951091;28;19930;-63
2020/12/11 06:47:00;;;;;;;;;;;;;;;;;;4951609;28;20026;-63
2020/12/11 06:49:27;;;;;;;;;;;;;;;;;;4956022;28;20266;-63
2020/12/11 06:51:54;;;;;;;;;;;;;;;;;;4949504;28;19930;-64
2020/12/11 06:54:21;;;;;;;;;;;;;;;;;;4945334;28;20313;-64
2020/12/11 06:56:48;;;;;;;;;;;;;;;;;;4939291;29;19933;-63
2020/12/11 06:59:16;;;;;;;;;;;;;;;;;;4936943;29;19931;-65
2020/12/11 07:01:43;;;;;;;;;;;;;;;;;;4934172;29;20022;-64
2020/12/11 07:04:10;;;;;;;;;;;;;;;;;;4941635;29;20350;-64
2020/12/11 07:06:37;;;;;;;;;;;;;;;;;;4948385;29;20035;-64
2020/12/11 07:09:05;;;;;;;;;;;;;;;;;;4950891;28;19934;-63
2020/12/11 07:11:32;;;;;;;;;;;;;;;;;;4947485;29;19933;-65
2020/12/11 07:13:59;;;;;;;;;;;;;;;;;;4946853;29;20097;-65
2020/12/11 07:16:27;;;;;;;;;;;;;;;;;;4936885;29;20021;-63
2020/12/11 07:18:54;;;;;;;;;;;;;;;;;;4931035;29;19934;-65
2020/12/11 07:21:21;;;;;;;;;;;;;;;;;;4939844;28;19969;-66
2020/12/11 07:23:48;;;;;;;;;;;;;;;;;;4939664;29;20022;-64
2020/12/11 07:26:16;;;;;;;;;;;;;;;;;;4940995;28;20333;-64
2020/12/11 07:28:43;;;;;;;;;;;;;;;;;;4938602;29;20385;-66
2020/12/11 07:31:10;;;;;;;;;;;;;;;;;;4947526;28;20025;-64
2020/12/11 07:33:37;;;;;;;;;;;;;;;;;;4935034;29;19931;-65
2020/12/11 07:36:04;;;;;;;;;;;;;;;;;;4946987;29;20359;-65
2020/12/11 07:38:32;;;;;;;;;;;;;;;;;;4935229;28;20361;-65
2020/12/11 07:40:59;;;;;;;;;;;;;;;;;;4948875;29;20016;-65
2020/12/11 07:43:26;;;;;;;;;;;;;;;;;;4944752;29;20329;-65
2020/12/11 07:45:54;;;;;;;;;;;;;;;;;;4952067;29;19927;-65
2020/12/11 07:48:22;;;;;;;;;;;;;;;;;;4949963;29;19950;-64
2020/12/11 07:50:49;;;;;;;;;;;;;;;;;;4948941;28;20233;-65
2020/12/11 07:53:16;;;;;;;;;;;;;;;;;;4939928;29;20324;-65
2020/12/11 07:55:48;;;;;;;;;;;;;;;;;;4952751;29;19993;-64
2020/12/11 07:58:15;;;;;;;;;;;;;;;;;;4940677;29;20034;-64
2020/12/11 08:00:42;;;;;;;;;;;;;;;;;;4953995;29;19935;-64
2020/12/11 08:03:09;;;;;;;;;;;;;;;;;;4948497;29;19986;-64
2020/12/11 08:05:37;;;;;;;;;;;;;;;;;;4941590;29;19930;-64
2020/12/11 08:08:04;;;;;;;;;;;;;;;;;;4940896;29;19937;-67
2020/12/11 08:10:32;;;;;;;;;;;;;;;;;;4939302;29;19947;-66
2020/12/11 08:12:59;;;;;;;;;;;;;;;;;;4952158;28;20317;-65
2020/12/11 08:15:26;;;;;;;;;;;;;;;;;;4952923;29;19930;-65
2020/12/11 08:17:54;;;;;;;;;;;;;;;;;;4954756;29;20072;-67
2020/12/11 08:20:21;;;;;;;;;;;;;;;;;;4938934;29;19927;-64
2020/12/11 08:22:48;;;;;;;;;;;;;;;;;;4946866;28;19938;-65
2020/12/11 08:25:16;;;;;;;;;;;;;;;;;;4948973;29;20508;-65
2020/12/11 08:27:43;;;;;;;;;;;;;;;;;;4952048;28;19997;-65
2020/12/11 08:30:12;;;;;;;;;;;;;;;;;;4951318;28;20029;-66
2020/12/11 08:32:39;;;;;;;;;;;;;;;;;;4947913;29;20003;-65
2020/12/11 08:35:07;;;;;;;;;;;;;;;;;;4952468;29;20024;-64
2020/12/11 08:37:34;;;;;;;;;;;;;;;;;;4955200;28;19930;-65
2020/12/11 08:40:01;;;;;;;;;;;;;;;;;;4956810;28;20377;-65
2020/12/11 08:42:32;;;;;;;;;;;;;;;;;;4952834;29;19962;-64
2020/12/11 08:45:23;;;;;;;;;;;;;;;;;;4945631;29;19930;-64
2020/12/11 08:48:10;;;;;;;;;;;;;;;;;;4941274;28;19930;-65
2020/12/11 08:50:40;;;;;;;;;;;;;;;;;;4946649;29;19927;-65
2020/12/11 08:53:10;;;;;;;;;;;;;;;;;;4941658;29;20017;-65
2020/12/11 08:55:37;;;;;;;;;;;;;;;;;;4955309;29;19937;-65
2020/12/11 08:58:04;;;;;;;;;;;;;;;;;;4943952;29;20441;-64
2020/12/11 09:00:32;;;;;;;;;;;;;;;;;;4954369;28;19972;-64
2020/12/11 09:02:59;;;;;;;;;;;;;;;;;;4941741;29;19927;-65
2020/12/11 09:05:27;;;;;;;;;;;;;;;;;;4949121;29;20014;-65
2020/12/11 09:07:55;;;;;;;;;;;;;;;;;;4950766;29;20393;-66
2020/12/11 09:10:22;;;;;;;;;;;;;;;;;;4961427;28;20020;-65
2020/12/11 09:12:51;;;;;;;;;;;;;;;;;;4950678;29;19937;-65
2020/12/11 09:15:19;;;;;;;;;;;;;;;;;;4944505;29;19930;-64
2020/12/11 09:17:46;;;;;;;;;;;;;;;;;;4948687;29;19927;-64
2020/12/11 09:20:14;;;;;;;;;;;;;;;;;;4945881;29;20271;-64
2020/12/11 09:22:41;;;;;;;;;;;;;;;;;;4947065;29;19930;-64
2020/12/11 09:25:08;;;;;;;;;;;;;;;;;;4946029;29;19931;-66
2020/12/11 09:27:36;;;;;;;;;;;;;;;;;;4941721;29;19941;-65
2020/12/11 09:30:14;;;;;;;;;;;;;;;;;;4945145;29;20301;-65
2020/12/11 09:32:51;;;;;;;;;;;;;;;;;;4949092;29;19938;-65
2020/12/11 09:35:18;;;;;;;;;;;;;;;;;;4936222;29;19931;-65
2020/12/11 09:37:50;;;;;;;;;;;;;;;;;;4951012;29;19934;-64
2020/12/11 09:40:17;;;;;;;;;;;;;;;;;;4945164;29;19927;-64
2020/12/11 09:42:56;;;;;;;;;;;;;;;;;;4947431;29;19930;-64
2020/12/11 09:45:27;;;;;;;;;;;;;;;;;;4934835;29;20140;-65
2020/12/11 09:53:43;;;;;;;;;;;;;;;;;;4948298;29;19938;-65
2020/12/11 09:56:10;;;;;;;;;;;;;;;;;;4937848;29;19941;-64
2020/12/11 09:58:40;;;;;;;;;;;;;;;;;;4937754;29;19931;-65
2020/12/11 10:01:08;;;;;;;;;;;;;;;;;;4947926;29;19942;-65
2020/12/11 10:03:39;;;;;;;;;;;;;;;;;;4932007;29;19931;-66
2020/12/11 10:06:08;;;;;;;;;;;;;;;;;;4940219;29;19930;-66
2020/12/11 10:08:35;;;;;;;;;;;;;;;;;;4943210;29;20742;-64
2020/12/11 10:11:03;;;;;;;;;;;;;;;;;;4942420;29;19945;-65
2020/12/11 10:13:31;;;;;;;;;;;;;;;;;;4933614;29;19941;-67
2020/12/11 10:15:58;;;;;;;;;;;;;;;;;;4947233;28;20385;-66
2020/12/11 10:18:26;;;;;;;;;;;;;;;;;;4942131;29;19930;-66
2020/12/11 10:20:54;;;;;;;;;;;;;;;;;;4939202;29;20017;-65
2020/12/11 10:23:21;;;;;;;;;;;;;;;;;;4947080;29;19934;-67
2020/12/11 10:25:49;;;;;;;;;;;;;;;;;;4948135;28;19935;-66
2020/12/11 10:28:16;;;;;;;;;;;;;;;;;;4949391;29;19927;-65
2020/12/11 10:30:44;;;;;;;;;;;;;;;;;;4947271;28;19934;-67
2020/12/11 10:33:11;;;;;;;;;;;;;;;;;;4950531;29;19985;-70
2020/12/11 10:35:38;;;;;;;;;;;;;;;;;;4946178;29;19972;-65
2020/12/11 10:38:06;;;;;;;;;;;;;;;;;;4951835;29;19930;-65
2020/12/11 10:40:33;;;;;;;;;;;;;;;;;;4949892;28;19990;-65
2020/12/11 10:43:01;;;;;;;;;;;;;;;;;;4940240;29;19927;-64
2020/12/11 10:45:28;;;;;;;;;;;;;;;;;;4948123;29;20358;-65
2020/12/11 10:48:05;;;;;;;;;;;;;;;;;;4935215;29;19927;-64
2020/12/11 10:50:32;;;;;;;;;;;;;;;;;;4939781;29;19931;-65
2020/12/11 10:53:00;;;;;;;;;;;;;;;;;;4940773;29;19927;-64
2020/12/11 10:55:27;;;;;;;;;;;;;;;;;;4946207;29;19976;-65
2020/12/11 10:57:55;;;;;;;;;;;;;;;;;;4942761;29;19926;-64
2020/12/11 11:00:22;;;;;;;;;;;;;;;;;;4939933;29;19982;-64
2020/12/11 11:02:49;;;;;;;;;;;;;;;;;;4949206;29;19932;-64
2020/12/11 11:05:17;;;;;;;;;;;;;;;;;;4937924;29;19993;-65
2020/12/11 11:07:44;;;;;;;;;;;;;;;;;;4946975;29;19934;-65
2020/12/11 11:10:20;;;;;;;;;;;;;;;;;;4951173;28;19933;-64
2020/12/11 11:12:52;;;;;;;;;;;;;;;;;;4952769;28;20301;-65
2020/12/11 11:18:29;;;;;;;;;;;;;;;;;;4935398;28;19989;-65
2020/12/11 11:23:54;;;;;;;;;;;;;;;;;;4935499;29;19937;-67
2020/12/11 11:26:27;;;;;;;;;;;;;;;;;;4946221;28;19927;-64
2020/12/11 11:28:55;;;;;;;;;;;;;;;;;;4951461;28;19953;-65
2020/12/11 11:31:22;;;;;;;;;;;;;;;;;;4944402;28;19977;-65
2020/12/11 11:33:49;;;;;;;;;;;;;;;;;;4946044;29;19938;-67
2020/12/11 11:36:17;;;;;;;;;;;;;;;;;;4931743;29;20353;-65
2020/12/11 11:38:44;;;;;;;;;;;;;;;;;;4940223;29;19952;-65
2020/12/11 11:41:11;;;;;;;;;;;;;;;;;;4947821;28;20402;-66
2020/12/11 11:43:56;;;;;;;;;;;;;;;;;;4946640;29;19937;-66
2020/12/11 11:46:24;;;;;;;;;;;;;;;;;;4942891;29;19938;-67
2020/12/11 11:48:51;;;;;;;;;;;;;;;;;;4948477;28;20024;-68
2020/12/11 11:51:21;;;;;;;;;;;;;;;;;;4942938;29;19954;-66
2020/12/11 11:53:49;;;;;;;;;;;;;;;;;;4939295;29;20052;-66
2020/12/11 11:56:16;;;;;;;;;;;;;;;;;;4939143;28;20429;-66
2020/12/11 11:58:46;;;;;;;;;;;;;;;;;;4937047;29;19961;-65
2020/12/11 12:01:13;;;;;;;;;;;;;;;;;;4938200;29;20370;-65
2020/12/11 12:03:40;;;;;;;;;;;;;;;;;;5525140;23;20075;-86
2020/12/11 12:06:08;;;;;;;;;;;;;;;;;;4970113;28;20353;-86
2020/12/11 12:08:36;;;;;;;;;;;;;;;;;;4964074;28;20028;-86
2020/12/11 12:11:05;;;;;;;;;;;;;;;;;;4971296;28;19930;-86
2020/12/11 12:13:32;;;;;;;;;;;;;;;;;;4973161;28;20301;-87
2020/12/11 12:16:00;;;;;;;;;;;;;;;;;;4968349;28;20047;-87
2020/12/11 12:18:27;;;;;;;;;;;;;;;;;;4975309;28;20010;-87
2020/12/11 12:20:58;;;;;;;;;;;;;;;;;;4968891;28;20033;-86
2020/12/11 12:29:14;;;;;;;;;;;;;;;;;;4934053;29;20445;-87
2020/12/11 12:31:43;;;;;;;;;;;;;;;;;;4960401;28;19933;-88
2020/12/11 12:37:12;;;;;;;;;;;;;;;;;;4978516;28;19937;-87
2020/12/11 12:45:14;;;;;;;;;;;;;;;;;;4978136;28;19937;-87
2020/12/11 12:47:41;;;;;;;;;;;;;;;;;;4960783;28;19937;-88
2020/12/11 12:50:09;;;;;;;;;;;;;;;;;;4971572;28;19926;-86
2020/12/11 12:52:37;;;;;;;;;;;;;;;;;;4978699;28;20377;-87
2020/12/11 12:55:04;;;;;;;;;;;;;;;;;;4972500;28;19941;-87
2020/12/11 12:57:36;;;;;;;;;;;;;;;;;;4970033;28;20009;-87
2020/12/11 13:00:11;;;;;;;;;;;;;;;;;;4980554;28;19972;-87
2020/12/11 13:05:25;;;;;;;;;;;;;;;;;;4974820;28;19981;-86
2020/12/11 13:07:53;;;;;;;;;;;;;;;;;;4967985;28;20064;-86
2020/12/11 13:10:21;;;;;;;;;;;;;;;;;;4979115;28;20131;-86
2020/12/11 13:12:49;;;;;;;;;;;;;;;;;;4995114;28;19976;-86
2020/12/11 13:15:17;;;;;;;;;;;;;;;;;;4972858;28;19985;-86
2020/12/11 13:17:45;;;;;;;;;;;;;;;;;;4976393;28;19977;-87
2020/12/11 13:20:14;;;;;;;;;;;;;;;;;;4976007;28;19927;-87
2020/12/11 13:25:19;;;;;;;;;;;;;;;;;;4969612;28;19926;-86
2020/12/11 13:25:49;;;;;;;;;;;;;;;;;;4977301;28;19927;-86
2020/12/11 13:28:17;;;;;;;;;;;;;;;;;;4966760;28;19985;-86
2020/12/11 13:30:45;;;;;;;;;;;;;;;;;;4965985;28;19931;-86
2020/12/11 13:33:14;;;;;;;;;;;;;;;;;;4959955;28;19926;-86
2020/12/11 13:35:42;;;;;;;;;;;;;;;;;;4956110;28;19926;-86
2020/12/11 13:38:10;;;;;;;;;;;;;;;;;;4957340;28;19933;-87
2020/12/11 13:40:37;;;;;;;;;;;;;;;;;;4965904;28;19930;-87
2020/12/11 13:43:05;;;;;;;;;;;;;;;;;;4978077;28;19926;-86
2020/12/11 13:45:33;;;;;;;;;;;;;;;;;;4960849;28;19996;-87
2020/12/11 13:48:01;;;;;;;;;;;;;;;;;;4958118;28;19930;-88
2020/12/11 13:50:31;;;;;;;;;;;;;;;;;;4966566;28;20425;-87
2020/12/11 13:52:59;;;;;;;;;;;;;;;;;;4970301;28;19932;-87
2020/12/11 13:55:27;;;;;;;;;;;;;;;;;;4969650;28;19957;-87
2020/12/11 13:57:55;;;;;;;;;;;;;;;;;;4972204;28;19930;-87
2020/12/11 14:00:25;;;;;;;;;;;;;;;;;;4975105;28;19934;-86
2020/12/11 14:02:53;;;;;;;;;;;;;;;;;;4964347;28;19931;-86
2020/12/11 14:05:21;;;;;;;;;;;;;;;;;;4963591;28;20039;-87
2020/12/11 14:07:49;;;;;;;;;;;;;;;;;;4956534;28;19931;-86
2020/12/11 14:10:17;;;;;;;;;;;;;;;;;;4966218;28;19930;-86
2020/12/11 14:12:44;;;;;;;;;;;;;;;;;;4971755;28;20384;-87
2020/12/11 14:15:11;;;;;;;;;;;;;;;;;;4971944;28;19934;-87
2020/12/11 14:17:55;;;;;;;;;;;;;;;;;;4968214;28;19933;-87
2020/12/11 14:20:33;;;;;;;;;;;;;;;;;;4972109;28;19961;-88
2020/12/11 14:23:04;;;;;;;;;;;;;;;;;;4961154;28;20338;-87
2020/12/11 14:25:32;;;;;;;;;;;;;;;;;;4954481;28;19949;-87
2020/12/11 14:28:00;;;;;;;;;;;;;;;;;;4969417;28;19927;-87
2020/12/11 14:30:27;;;;;;;;;;;;;;;;;;4968230;28;19934;-88
2020/12/11 14:32:55;;;;;;;;;;;;;;;;;;4972833;28;19929;-88
2020/12/11 14:35:23;;;;;;;;;;;;;;;;;;4973020;28;19945;-86
2020/12/11 14:37:51;;;;;;;;;;;;;;;;;;4970858;28;20254;-86
2020/12/11 14:40:18;;;;;;;;;;;;;;;;;;4966133;28;20077;-87
2020/12/11 14:42:45;;;;;;;;;;;;;;;;;;4965258;28;20358;-87
2020/12/11 14:45:13;;;;;;;;;;;;;;;;;;4960404;28;19937;-87
2020/12/11 14:47:40;;;;;;;;;;;;;;;;;;4960509;28;19930;-87
2020/12/11 14:50:08;;;;;;;;;;;;;;;;;;4965145;28;19930;-88
2020/12/11 14:52:35;;;;;;;;;;;;;;;;;;4974917;28;19935;-87
2020/12/11 14:55:03;;;;;;;;;;;;;;;;;;4953100;28;19931;-86
2020/12/11 14:57:30;;;;;;;;;;;;;;;;;;4963239;28;20362;-87
2020/12/11 14:59:58;;;;;;;;;;;;;;;;;;4968014;28;19954;-88
2020/12/11 15:02:25;;;;;;;;;;;;;;;;;;4960200;28;20503;-86
2020/12/11 15:04:53;;;;;;;;;;;;;;;;;;4963467;28;20345;-87
2020/12/11 15:07:20;;;;;;;;;;;;;;;;;;4964745;28;19932;-86
2020/12/11 15:09:47;;;;;;;;;;;;;;;;;;4969229;28;19930;-86
2020/12/11 15:12:15;;;;;;;;;;;;;;;;;;4968427;28;19935;-86
2020/12/11 15:14:43;;;;;;;;;;;;;;;;;;4972795;28;19937;-86
2020/12/11 15:17:11;;;;;;;;;;;;;;;;;;4968923;28;19926;-86
2020/12/11 15:19:38;;;;;;;;;;;;;;;;;;4969859;28;20411;-87
2020/12/11 15:22:08;;;;;;;;;;;;;;;;;;4964616;28;19930;-86
2020/12/11 15:24:48;;;;;;;;;;;;;;;;;;4978082;28;19949;-86
2020/12/11 15:27:16;;;;;;;;;;;;;;;;;;4978672;28;20405;-86
2020/12/11 15:29:43;;;;;;;;;;;;;;;;;;4981607;28;19955;-87
2020/12/11 15:32:12;;;;;;;;;;;;;;;;;;4983057;28;19930;-87
2020/12/11 15:34:39;;;;;;;;;;;;;;;;;;4971302;28;19930;-86
2020/12/11 15:37:11;;;;;;;;;;;;;;;;;;4970503;28;19930;-87
2020/12/11 15:39:38;;;;;;;;;;;;;;;;;;4979703;28;19930;-88
2020/12/11 15:42:06;;;;;;;;;;;;;;;;;;4968004;28;19934;-86
2020/12/11 15:44:33;;;;;;;;;;;;;;;;;;4970722;28;19981;-85
2020/12/11 15:47:01;;;;;;;;;;;;;;;;;;4970182;28;19936;-85
2020/12/11 15:49:34;;;;;;;;;;;;;;;;;;4967541;28;19949;-86
2020/12/11 15:52:02;;;;;;;;;;;;;;;;;;4964634;28;20021;-86
2020/12/11 15:54:29;;;;;;;;;;;;;;;;;;4972249;28;19991;-86
2020/12/11 15:56:56;;;;;;;;;;;;;;;;;;4967198;28;20047;-86
2020/12/11 15:59:24;;;;;;;;;;;;;;;;;;4959132;28;19931;-86
2020/12/11 16:01:51;;;;;;;;;;;;;;;;;;4961254;28;19938;-86
2020/12/11 16:04:18;;;;;;;;;;;;;;;;;;4968616;28;19934;-85
2020/12/11 16:06:46;;;;;;;;;;;;;;;;;;4965415;28;19945;-85
2020/12/11 16:09:13;;;;;;;;;;;;;;;;;;4975120;28;19933;-87
2020/12/11 16:11:41;;;;;;;;;;;;;;;;;;4977358;28;19926;-86
2020/12/11 16:14:08;;;;;;;;;;;;;;;;;;4982254;28;19937;-86
2020/12/11 16:16:36;;;;;;;;;;;;;;;;;;4964194;28;19935;-87
2020/12/11 16:19:03;;;;;;;;;;;;;;;;;;4975427;28;19931;-87
2020/12/11 16:21:30;;;;;;;;;;;;;;;;;;4974398;28;19927;-87
2020/12/11 16:23:58;;;;;;;;;;;;;;;;;;4977254;28;19932;-86
2020/12/11 16:26:29;;;;;;;;;;;;;;;;;;4972033;28;19994;-86
2020/12/11 16:28:57;;;;;;;;;;;;;;;;;;4981868;28;19934;-86
2020/12/11 16:31:24;;;;;;;;;;;;;;;;;;4981452;28;20301;-86
2020/12/11 16:34:03;;;;;;;;;;;;;;;;;;4977989;28;20376;-86
2020/12/11 16:36:30;;;;;;;;;;;;;;;;;;4965801;28;19926;-86
2020/12/11 16:38:58;;;;;;;;;;;;;;;;;;4978437;28;19993;-86
2020/12/11 16:41:37;;;;;;;;;;;;;;;;;;4983192;28;19930;-87
2020/12/11 16:44:11;;;;;;;;;;;;;;;;;;4966905;28;19934;-87
2020/12/11 16:46:38;;;;;;;;;;;;;;;;;;4974368;28;19981;-87
2020/12/11 16:49:11;;;;;;;;;;;;;;;;;;4978077;28;19934;-86
2020/12/11 16:51:38;;;;;;;;;;;;;;;;;;4963581;28;20388;-86
2020/12/11 16:54:06;;;;;;;;;;;;;;;;;;4977636;28;19973;-86
2020/12/11 16:56:38;;;;;;;;;;;;;;;;;;4982406;28;20017;-86
2020/12/11 16:59:09;;;;;;;;;;;;;;;;;;4985508;28;20021;-87
2020/12/11 17:01:39;;;;;;;;;;;;;;;;;;4985518;28;19941;-86
2020/12/11 17:04:12;;;;;;;;;;;;;;;;;;4990776;28;20344;-86
2020/12/11 17:06:48;;;;;;;;;;;;;;;;;;4974707;28;19961;-85
2020/12/11 17:09:15;;;;;;;;;;;;;;;;;;4969368;28;19930;-87
2020/12/11 17:11:55;;;;;;;;;;;;;;;;;;4969068;28;19934;-87
2020/12/11 17:14:27;;;;;;;;;;;;;;;;;;4982476;28;19981;-88
2020/12/11 17:16:57;;;;;;;;;;;;;;;;;;4966427;28;20382;-88
2020/12/11 17:19:36;;;;;;;;;;;;;;;;;;4972426;28;19973;-88
2020/12/11 17:22:18;;;;;;;;;;;;;;;;;;4976778;28;19956;-85